Time;durP1;ratioP1;P1;durP2;ratioP2;P2;SDS_P1;SDS_P2;PMS_P1;PMS_P2;Temp;Humidity;BMP_temperature;BMP_pressure;BME280_temperature;BME280_humidity;BME280_pressure;Samples;Min_cycle;Max_cycle;Signal;HPM_P1;HPM_P2
2021/11/29 00:00:21;;;;;;;9.93;6.53;;;3.20;79.90;;;;;;5047286;28;20033;-67
2021/11/29 00:02:52;;;;;;;11.00;6.97;;;3.20;79.80;;;;;;5044811;28;20509;-65
2021/11/29 00:05:19;;;;;;;9.63;6.55;;;3.20;79.90;;;;;;5047173;28;20041;-66
2021/11/29 00:07:45;;;;;;;12.65;7.30;;;3.30;79.90;;;;;;5039695;28;20041;-68
2021/11/29 00:10:11;;;;;;;12.40;8.45;;;3.30;79.90;;;;;;5041860;28;20063;-67
2021/11/29 00:12:37;;;;;;;11.65;7.63;;;3.30;79.90;;;;;;5041631;28;20166;-67
2021/11/29 00:15:05;;;;;;;11.00;7.13;;;3.30;79.70;;;;;;5047239;28;20037;-67
2021/11/29 00:17:31;;;;;;;9.23;7.15;;;3.30;79.50;;;;;;5041271;28;20037;-67
2021/11/29 00:19:56;;;;;;;10.80;6.85;;;3.30;79.40;;;;;;5044571;28;20519;-68
2021/11/29 00:22:22;;;;;;;9.00;6.63;;;3.30;79.30;;;;;;5043471;28;20134;-67
2021/11/29 00:24:48;;;;;;;9.75;6.65;;;3.30;79.30;;;;;;5045447;28;20431;-67
2021/11/29 00:27:13;;;;;;;10.40;7.28;;;3.20;79.30;;;;;;5038495;28;20040;-65
2021/11/29 00:29:42;;;;;;;10.43;7.00;;;3.20;79.50;;;;;;5041569;28;20036;-66
2021/11/29 00:32:08;;;;;;;11.07;6.82;;;3.20;79.50;;;;;;5038683;28;20095;-66
2021/11/29 00:34:34;;;;;;;9.95;6.93;;;3.20;79.50;;;;;;5037440;28;20495;-65
2021/11/29 00:37:00;;;;;;;9.93;6.80;;;3.10;79.50;;;;;;5043238;28;20444;-67
2021/11/29 00:39:25;;;;;;;9.63;6.35;;;3.10;79.70;;;;;;5043780;28;20098;-67
2021/11/29 00:41:51;;;;;;;10.38;6.82;;;3.10;79.80;;;;;;5043289;28;20028;-67
2021/11/29 00:44:17;;;;;;;10.07;7.60;;;3.10;80.00;;;;;;5042384;28;20033;-67
2021/11/29 00:46:43;;;;;;;10.50;6.80;;;3.10;80.10;;;;;;5043213;28;20094;-67
2021/11/29 00:49:08;;;;;;;13.32;7.18;;;3.10;80.00;;;;;;5042497;28;20103;-67
2021/11/29 00:51:34;;;;;;;10.00;7.00;;;3.00;79.80;;;;;;5035045;28;20226;-68
2021/11/29 00:54:00;;;;;;;9.48;6.50;;;3.10;80.20;;;;;;5039403;28;20063;-67
2021/11/29 00:56:27;;;;;;;12.45;6.85;;;3.00;80.30;;;;;;5042223;28;20041;-67
2021/11/29 00:58:53;;;;;;;10.88;6.47;;;3.00;80.40;;;;;;5040244;28;20051;-67
2021/11/29 01:01:19;;;;;;;10.15;6.45;;;3.00;80.40;;;;;;5041211;28;20033;-67
2021/11/29 01:03:44;;;;;;;8.05;6.30;;;3.00;80.60;;;;;;5036724;28;20071;-67
2021/11/29 01:06:10;;;;;;;9.45;6.10;;;3.00;80.60;;;;;;5042145;28;20073;-67
2021/11/29 01:08:36;;;;;;;8.35;6.60;;;3.00;80.70;;;;;;5044699;28;20742;-67
2021/11/29 01:11:03;;;;;;;8.35;6.88;;;3.10;80.80;;;;;;5035071;28;20029;-67
2021/11/29 01:13:29;;;;;;;9.32;6.70;;;3.00;80.70;;;;;;5036829;28;20040;-67
2021/11/29 01:15:55;;;;;;;10.55;7.43;;;3.00;80.80;;;;;;5039644;28;20309;-67
2021/11/29 01:18:21;;;;;;;10.70;7.22;;;3.00;80.80;;;;;;5042466;28;20048;-67
2021/11/29 01:20:48;;;;;;;10.57;7.18;;;3.10;80.90;;;;;;5040628;28;20599;-67
2021/11/29 01:23:16;;;;;;;7.55;6.63;;;3.00;80.90;;;;;;5040247;28;20093;-66
2021/11/29 01:25:42;;;;;;;8.35;6.35;;;3.00;80.90;;;;;;5044124;28;20033;-67
2021/11/29 01:28:09;;;;;;;8.75;6.78;;;3.10;81.00;;;;;;5041382;28;20442;-67
2021/11/29 01:30:35;;;;;;;8.30;6.80;;;3.00;81.00;;;;;;5039267;28;20067;-67
2021/11/29 01:33:01;;;;;;;12.38;7.38;;;3.00;81.00;;;;;;5038578;28;21038;-67
2021/11/29 01:35:26;;;;;;;10.77;7.28;;;3.10;81.10;;;;;;5042205;28;20079;-66
2021/11/29 01:37:52;;;;;;;9.50;6.90;;;3.00;82.00;;;;;;5038861;28;20033;-67
2021/11/29 01:40:18;;;;;;;9.43;6.78;;;3.10;81.30;;;;;;5044423;28;20132;-67
2021/11/29 01:43:15;;;;;;;11.00;7.20;;;3.10;81.20;;;;;;5041631;28;20111;-67
2021/11/29 01:45:47;;;;;;;12.32;7.10;;;3.10;81.60;;;;;;5034490;28;20025;-67
2021/11/29 01:48:13;;;;;;;10.00;7.15;;;3.10;81.40;;;;;;5040918;28;20523;-67
2021/11/29 01:50:44;;;;;;;10.35;7.03;;;3.20;81.30;;;;;;5039762;28;20123;-67
2021/11/29 01:53:10;;;;;;;11.35;7.65;;;3.20;81.30;;;;;;5039485;28;20438;-68
2021/11/29 01:55:38;;;;;;;9.73;7.20;;;3.30;81.30;;;;;;5045157;28;20029;-67
2021/11/29 01:58:04;;;;;;;12.02;7.95;;;3.30;81.20;;;;;;5041230;28;20033;-67
2021/11/29 02:00:35;;;;;;;11.02;7.55;;;3.30;81.10;;;;;;5040039;28;20021;-67
2021/11/29 02:03:01;;;;;;;14.93;8.52;;;3.40;80.90;;;;;;5040338;28;20025;-67
2021/11/29 02:05:27;;;;;;;17.35;9.43;;;3.30;80.70;;;;;;5038925;28;20098;-67
2021/11/29 02:07:53;;;;;;;13.80;9.13;;;3.30;80.70;;;;;;5038107;28;20064;-67
2021/11/29 02:10:21;;;;;;;15.30;10.93;;;3.30;80.60;;;;;;5038594;28;20500;-67
2021/11/29 02:12:48;;;;;;;10.63;8.00;;;3.30;80.70;;;;;;5033443;28;20061;-68
2021/11/29 02:15:15;;;;;;;12.32;8.48;;;3.30;80.70;;;;;;5044056;28;20108;-68
2021/11/29 02:17:42;;;;;;;10.80;7.63;;;3.30;80.80;;;;;;5039078;28;20033;-67
2021/11/29 02:20:09;;;;;;;10.82;7.43;;;3.20;80.70;;;;;;5044608;28;20680;-67
2021/11/29 02:22:35;;;;;;;9.13;7.03;;;3.30;80.80;;;;;;5036899;28;20497;-67
2021/11/29 02:25:01;;;;;;;10.70;7.35;;;3.20;80.70;;;;;;5037967;28;20401;-67
2021/11/29 02:27:27;;;;;;;8.32;6.90;;;3.20;80.70;;;;;;5038188;28;20059;-67
2021/11/29 02:29:55;;;;;;;8.73;6.82;;;3.20;80.70;;;;;;5041795;28;20040;-67
2021/11/29 02:32:21;;;;;;;9.88;6.97;;;3.20;80.60;;;;;;5038311;28;20025;-67
2021/11/29 02:34:47;;;;;;;8.65;6.63;;;3.20;80.50;;;;;;5038137;28;20110;-67
2021/11/29 02:37:14;;;;;;;11.40;7.38;;;3.20;80.50;;;;;;5041325;28;20547;-66
2021/11/29 02:39:43;;;;;;;14.68;8.07;;;3.10;80.40;;;;;;5041311;28;21219;-67
2021/11/29 02:42:12;;;;;;;12.00;7.70;;;3.10;80.40;;;;;;5041184;28;20610;-67
2021/11/29 02:44:39;;;;;;;11.75;7.30;;;3.10;80.30;;;;;;5044038;28;20032;-67
2021/11/29 02:47:05;;;;;;;15.98;8.02;;;3.10;80.40;;;;;;5037670;28;20040;-67
2021/11/29 02:49:31;;;;;;;12.32;7.45;;;3.00;80.50;;;;;;5040706;28;20029;-67
2021/11/29 02:52:00;;;;;;;10.13;7.22;;;3.00;80.40;;;;;;5046193;28;20071;-67
2021/11/29 02:54:29;;;;;;;10.95;7.20;;;3.00;80.40;;;;;;5042911;28;20041;-67
2021/11/29 02:56:59;;;;;;;9.60;7.13;;;3.00;81.30;;;;;;5043660;28;20463;-67
2021/11/29 02:59:27;;;;;;;10.75;7.07;;;3.00;80.60;;;;;;5047530;28;20060;-67
2021/11/29 03:01:59;;;;;;;9.63;6.75;;;3.00;80.70;;;;;;5039621;28;20044;-67
2021/11/29 03:04:28;;;;;;;8.73;6.47;;;2.90;80.70;;;;;;5042748;28;20033;-66
2021/11/29 03:06:55;;;;;;;10.63;7.13;;;3.00;80.80;;;;;;5040423;28;20140;-66
2021/11/29 03:09:21;;;;;;;11.40;7.40;;;3.00;80.80;;;;;;5044842;28;20034;-68
2021/11/29 03:11:47;;;;;;;9.27;7.07;;;2.90;80.90;;;;;;5034055;28;20032;-67
2021/11/29 03:14:14;;;;;;;10.23;7.07;;;2.90;80.90;;;;;;5046548;28;20029;-67
2021/11/29 03:16:40;;;;;;;10.80;6.78;;;3.00;81.10;;;;;;5047741;28;20029;-68
2021/11/29 03:19:06;;;;;;;9.75;7.15;;;2.90;80.90;;;;;;5041812;28;20132;-67
2021/11/29 03:21:32;;;;;;;12.25;8.10;;;2.90;81.00;;;;;;5044233;28;20116;-67
2021/11/29 03:24:00;;;;;;;15.27;9.20;;;3.00;81.00;;;;;;5044676;28;20051;-68
2021/11/29 03:26:27;;;;;;;14.25;9.48;;;2.90;81.10;;;;;;5038558;28;20107;-67
2021/11/29 03:28:56;;;;;;;9.98;7.30;;;2.90;81.10;;;;;;5042213;28;20029;-67
2021/11/29 03:31:24;;;;;;;10.10;6.93;;;2.90;81.20;;;;;;5045697;28;20045;-66
2021/11/29 03:33:51;;;;;;;9.70;6.95;;;2.80;81.20;;;;;;5041168;28;20037;-67
2021/11/29 03:36:17;;;;;;;9.50;6.32;;;2.80;81.40;;;;;;5044714;28;20460;-67
2021/11/29 03:38:43;;;;;;;6.05;4.60;;;2.80;81.40;;;;;;5044510;28;20079;-67
2021/11/29 03:41:09;;;;;;;5.47;4.53;;;2.80;81.50;;;;;;5041266;28;20044;-67
2021/11/29 03:43:35;;;;;;;5.85;4.32;;;2.70;81.40;;;;;;5044635;28;20124;-67
2021/11/29 03:46:01;;;;;;;5.95;4.40;;;2.60;81.40;;;;;;5043255;28;20029;-67
2021/11/29 03:48:27;;;;;;;7.60;4.20;;;2.60;81.50;;;;;;5043144;28;20555;-67
2021/11/29 03:50:52;;;;;;;5.78;4.57;;;2.60;81.80;;;;;;5041194;28;20033;-67
2021/11/29 03:53:18;;;;;;;6.25;5.05;;;2.60;81.90;;;;;;5043761;28;20570;-67
2021/11/29 03:55:44;;;;;;;8.27;5.18;;;2.60;82.10;;;;;;5039751;28;20036;-67
2021/11/29 03:58:10;;;;;;;6.10;4.85;;;2.60;82.20;;;;;;5043848;28;20025;-67
2021/11/29 04:00:36;;;;;;;6.15;4.78;;;2.60;82.30;;;;;;5043232;28;20039;-67
2021/11/29 04:03:02;;;;;;;7.00;5.00;;;2.60;82.30;;;;;;5041429;28;20065;-65
2021/11/29 04:05:27;;;;;;;6.38;4.95;;;2.60;82.30;;;;;;5036906;28;20033;-67
2021/11/29 04:07:53;;;;;;;6.97;5.18;;;2.60;82.30;;;;;;5045643;28;20574;-67
2021/11/29 04:10:19;;;;;;;6.80;5.40;;;2.60;82.20;;;;;;5043383;28;20045;-66
2021/11/29 04:12:44;;;;;;;8.38;5.60;;;2.70;82.20;;;;;;5037907;28;20040;-68
2021/11/29 04:15:10;;;;;;;7.25;5.28;;;2.70;82.10;;;;;;5045523;28;20083;-67
2021/11/29 04:17:39;;;;;;;7.35;4.97;;;2.70;82.00;;;;;;5042164;28;20038;-67
2021/11/29 04:20:10;;;;;;;6.80;5.38;;;2.70;82.00;;;;;;5043991;28;20060;-66
2021/11/29 04:22:39;;;;;;;7.82;5.85;;;2.80;82.00;;;;;;5042499;28;20048;-67
2021/11/29 04:25:08;;;;;;;6.90;5.45;;;2.80;82.60;;;;;;5045276;28;20501;-67
2021/11/29 04:27:35;;;;;;;7.20;5.43;;;2.70;81.60;;;;;;5039045;28;20091;-67
2021/11/29 04:30:06;;;;;;;6.70;5.22;;;2.70;81.60;;;;;;5047943;28;20033;-67
2021/11/29 04:32:32;;;;;;;6.22;5.00;;;2.70;81.30;;;;;;5045161;28;20033;-67
2021/11/29 04:34:58;;;;;;;6.13;4.90;;;2.70;81.40;;;;;;5040977;28;20105;-67
2021/11/29 04:37:23;;;;;;;5.97;5.25;;;2.70;81.30;;;;;;5036305;28;20045;-66
2021/11/29 04:39:49;;;;;;;5.65;4.50;;;2.60;81.10;;;;;;5041069;28;20041;-70
2021/11/29 04:42:15;;;;;;;5.78;4.65;;;2.60;80.90;;;;;;5040373;28;20683;-66
2021/11/29 04:44:41;;;;;;;5.63;4.63;;;2.60;80.90;;;;;;5045133;28;20062;-67
2021/11/29 04:47:07;;;;;;;5.43;4.65;;;2.50;80.70;;;;;;5042032;28;20056;-66
2021/11/29 04:49:33;;;;;;;6.80;5.10;;;2.50;80.70;;;;;;5035958;28;20519;-66
2021/11/29 04:51:59;;;;;;;7.15;4.90;;;2.40;81.50;;;;;;5039477;28;20094;-67
2021/11/29 04:54:24;;;;;;;6.05;4.90;;;2.40;80.70;;;;;;5038921;28;20467;-65
2021/11/29 04:56:50;;;;;;;6.65;4.90;;;2.30;80.70;;;;;;5040069;28;20398;-67
2021/11/29 04:59:15;;;;;;;7.28;4.72;;;2.30;80.60;;;;;;5037107;28;20083;-66
2021/11/29 05:01:41;;;;;;;6.28;4.90;;;2.30;80.60;;;;;;5037754;28;20037;-67
2021/11/29 05:04:07;;;;;;;5.80;4.43;;;2.30;80.70;;;;;;5041730;28;20040;-66
2021/11/29 05:06:36;;;;;;;7.30;5.53;;;2.20;80.70;;;;;;5042085;28;20074;-67
2021/11/29 05:09:02;;;;;;;6.25;4.93;;;2.20;80.90;;;;;;5044399;28;20036;-66
2021/11/29 05:11:28;;;;;;;6.30;5.25;;;2.20;80.90;;;;;;5033816;28;20043;-66
2021/11/29 05:13:54;;;;;;;6.97;5.03;;;2.20;81.10;;;;;;5039867;28;20049;-67
2021/11/29 05:16:19;;;;;;;5.93;4.88;;;2.20;81.10;;;;;;5036432;28;22155;-68
2021/11/29 05:18:45;;;;;;;7.43;5.47;;;2.20;81.20;;;;;;5040327;28;20048;-67
2021/11/29 05:21:10;;;;;;;9.20;6.15;;;2.20;81.20;;;;;;5039260;28;20041;-67
2021/11/29 05:23:36;;;;;;;8.35;6.18;;;2.30;81.20;;;;;;5045915;28;20041;-66
2021/11/29 05:26:02;;;;;;;8.23;6.00;;;2.30;81.10;;;;;;5042224;28;20025;-67
2021/11/29 05:28:27;;;;;;;9.15;6.22;;;2.30;81.10;;;;;;5036823;28;20033;-66
2021/11/29 05:30:53;;;;;;;9.10;6.45;;;2.30;81.10;;;;;;5037395;28;20060;-67
2021/11/29 05:33:19;;;;;;;9.40;5.88;;;2.30;80.90;;;;;;5035549;28;20025;-66
2021/11/29 05:35:44;;;;;;;8.63;6.45;;;2.30;80.90;;;;;;5036215;28;20051;-67
2021/11/29 05:38:10;;;;;;;7.43;5.97;;;2.30;81.00;;;;;;5039315;28;20039;-67
2021/11/29 05:40:35;;;;;;;10.70;6.60;;;2.40;81.10;;;;;;5041849;28;20033;-66
2021/11/29 05:43:01;;;;;;;11.43;7.00;;;2.40;81.10;;;;;;5042137;28;20029;-66
2021/11/29 05:45:27;;;;;;;12.32;6.82;;;2.40;81.00;;;;;;5037996;28;20041;-66
2021/11/29 05:47:53;;;;;;;9.48;6.72;;;2.40;80.90;;;;;;5042261;28;20044;-65
2021/11/29 05:50:19;;;;;;;12.85;7.15;;;2.40;80.70;;;;;;5038854;28;20029;-67
2021/11/29 05:52:46;;;;;;;10.20;6.53;;;2.40;81.40;;;;;;5041395;28;20546;-66
2021/11/29 05:55:14;;;;;;;10.38;6.57;;;2.50;80.70;;;;;;5040330;28;20096;-66
2021/11/29 05:57:41;;;;;;;9.73;6.90;;;2.50;81.40;;;;;;5041624;28;20043;-67
2021/11/29 06:00:09;;;;;;;8.98;6.45;;;2.50;80.50;;;;;;5042953;28;20049;-67
2021/11/29 06:02:35;;;;;;;9.15;6.32;;;2.50;80.40;;;;;;5036672;28;20085;-66
2021/11/29 06:05:00;;;;;;;8.35;5.30;;;2.50;80.50;;;;;;5042939;28;20045;-66
2021/11/29 06:07:26;;;;;;;8.57;6.47;;;2.50;80.40;;;;;;5037983;28;20127;-66
2021/11/29 06:09:52;;;;;;;9.10;7.00;;;2.50;80.30;;;;;;5043569;28;20035;-66
2021/11/29 06:12:17;;;;;;;8.60;6.60;;;2.60;80.30;;;;;;5043820;28;20044;-66
2021/11/29 06:14:43;;;;;;;9.38;6.50;;;2.60;80.20;;;;;;5046277;28;20566;-66
2021/11/29 06:17:09;;;;;;;9.18;6.97;;;2.60;80.20;;;;;;5045839;28;20033;-67
2021/11/29 06:19:34;;;;;;;11.27;7.88;;;2.60;80.20;;;;;;5044968;28;20128;-66
2021/11/29 06:22:00;;;;;;;11.15;7.95;;;2.60;80.00;;;;;;5045016;28;20526;-65
2021/11/29 06:24:25;;;;;;;10.57;7.50;;;2.60;80.00;;;;;;5043873;28;20044;-66
2021/11/29 06:26:51;;;;;;;11.60;8.20;;;2.60;79.70;;;;;;5049651;28;20112;-67
2021/11/29 06:29:17;;;;;;;11.57;8.40;;;2.60;79.50;;;;;;5049715;28;20529;-66
2021/11/29 06:31:42;;;;;;;18.33;8.90;;;2.60;79.30;;;;;;5049625;28;20037;-67
2021/11/29 06:34:08;;;;;;;17.45;9.30;;;2.50;79.10;;;;;;5051102;28;20044;-66
2021/11/29 06:36:34;;;;;;;13.45;8.88;;;2.50;79.00;;;;;;5048393;28;20037;-67
2021/11/29 06:39:00;;;;;;;15.88;8.82;;;2.50;79.10;;;;;;5050191;28;20040;-66
2021/11/29 06:41:26;;;;;;;14.00;8.55;;;2.40;79.00;;;;;;5050318;28;20158;-67
2021/11/29 06:43:52;;;;;;;14.77;9.10;;;2.30;79.30;;;;;;5049998;28;20037;-66
2021/11/29 06:46:18;;;;;;;15.18;8.85;;;2.40;79.20;;;;;;5049750;28;20036;-66
2021/11/29 06:48:44;;;;;;;13.82;9.30;;;2.30;79.20;;;;;;5048614;28;20653;-66
2021/11/29 06:51:10;;;;;;;14.68;8.90;;;2.30;79.20;;;;;;5049321;28;20040;-66
2021/11/29 06:53:36;;;;;;;13.88;9.50;;;2.30;79.20;;;;;;5049626;28;20479;-67
2021/11/29 06:56:03;;;;;;;15.52;9.88;;;2.30;79.30;;;;;;5048993;28;20633;-66
2021/11/29 06:58:29;;;;;;;15.80;9.45;;;2.20;79.40;;;;;;5050008;28;20412;-66
2021/11/29 07:00:55;;;;;;;19.13;10.45;;;2.20;79.50;;;;;;5049631;28;20025;-66
2021/11/29 07:03:21;;;;;;;18.00;11.52;;;2.20;79.60;;;;;;5048922;28;20037;-66
2021/11/29 07:05:47;;;;;;;19.42;11.15;;;2.20;79.70;;;;;;5048550;28;20037;-66
2021/11/29 07:08:13;;;;;;;19.23;11.43;;;2.20;79.70;;;;;;5049053;28;20033;-66
2021/11/29 07:10:42;;;;;;;26.65;13.02;;;2.20;79.90;;;;;;5041398;28;20112;-66
2021/11/29 07:13:12;;;;;;;26.77;11.82;;;2.10;80.00;;;;;;5042429;28;20086;-66
2021/11/29 07:15:39;;;;;;;27.58;12.13;;;2.20;80.40;;;;;;5041349;28;20029;-66
2021/11/29 07:18:06;;;;;;;21.05;12.32;;;2.10;80.50;;;;;;5044036;28;20119;-65
2021/11/29 07:20:32;;;;;;;24.17;13.05;;;2.10;80.70;;;;;;5044459;28;20025;-66
2021/11/29 07:22:59;;;;;;;21.98;12.63;;;2.20;80.80;;;;;;5041988;28;20082;-66
2021/11/29 07:25:24;;;;;;;20.88;12.30;;;2.20;80.90;;;;;;5044115;28;20037;-66
2021/11/29 07:27:50;;;;;;;22.63;14.50;;;2.20;81.00;;;;;;5044786;28;20515;-66
2021/11/29 07:30:18;;;;;;;23.27;13.25;;;2.30;81.10;;;;;;5040101;28;20045;-66
2021/11/29 07:32:44;;;;;;;27.60;15.02;;;2.30;81.10;;;;;;5038192;28;20040;-66
2021/11/29 07:35:11;;;;;;;29.73;14.88;;;2.30;81.10;;;;;;5039012;28;20045;-67
2021/11/29 07:37:37;;;;;;;28.40;15.55;;;2.40;81.00;;;;;;5038223;28;20044;-66
2021/11/29 07:40:05;;;;;;;28.45;16.02;;;2.40;81.00;;;;;;5026025;28;20099;-65
2021/11/29 07:42:31;;;;;;;31.65;16.58;;;2.50;81.10;;;;;;5042417;28;20530;-65
2021/11/29 07:44:58;;;;;;;27.48;15.32;;;2.50;81.10;;;;;;5022524;28;20044;-65
2021/11/29 07:47:24;;;;;;;24.25;14.82;;;2.50;81.10;;;;;;5022658;28;20045;-66
2021/11/29 07:49:50;;;;;;;23.63;13.90;;;2.60;81.10;;;;;;5021889;28;20059;-66
2021/11/29 07:52:16;;;;;;;22.52;14.07;;;2.60;81.10;;;;;;5024601;28;20133;-66
2021/11/29 07:54:43;;;;;;;22.63;14.10;;;2.70;80.90;;;;;;5025531;28;20037;-65
2021/11/29 07:57:11;;;;;;;22.98;13.70;;;2.70;80.70;;;;;;5025329;28;20033;-64
2021/11/29 07:59:37;;;;;;;25.05;14.13;;;2.70;80.60;;;;;;5037757;28;20075;-65
2021/11/29 08:02:02;;;;;;;22.85;14.05;;;2.80;80.40;;;;;;5030886;28;20036;-66
2021/11/29 08:04:28;;;;;;;21.70;13.65;;;2.80;80.30;;;;;;5033492;28;20037;-66
2021/11/29 08:06:54;;;;;;;24.27;13.93;;;2.80;81.10;;;;;;5033870;28;20060;-66
2021/11/29 08:09:19;;;;;;;24.88;13.95;;;2.80;80.20;;;;;;5031095;28;20029;-66
2021/11/29 08:11:46;;;;;;;24.50;13.65;;;2.80;80.10;;;;;;5033480;28;20456;-66
2021/11/29 08:14:11;;;;;;;24.17;14.38;;;2.80;80.20;;;;;;5037157;28;20033;-66
2021/11/29 08:16:37;;;;;;;27.05;14.02;;;2.80;80.20;;;;;;5029842;28;20067;-64
2021/11/29 08:19:03;;;;;;;25.08;13.70;;;2.80;80.20;;;;;;5034234;28;20048;-65
2021/11/29 08:21:28;;;;;;;27.40;13.02;;;2.80;80.30;;;;;;5034243;28;20377;-66
2021/11/29 08:23:54;;;;;;;26.13;13.25;;;2.90;80.30;;;;;;5037836;28;20049;-66
2021/11/29 08:26:19;;;;;;;26.50;14.50;;;2.80;80.20;;;;;;5031115;28;20703;-66
2021/11/29 08:28:45;;;;;;;22.77;14.15;;;2.80;80.30;;;;;;5036777;28;20063;-66
2021/11/29 08:31:11;;;;;;;22.02;13.10;;;2.80;80.30;;;;;;5036825;28;20044;-64
2021/11/29 08:33:37;;;;;;;24.40;13.68;;;2.80;80.40;;;;;;5038817;28;20033;-67
2021/11/29 08:36:03;;;;;;;23.58;14.07;;;2.80;80.40;;;;;;5026968;28;20040;-66
2021/11/29 08:38:29;;;;;;;25.42;13.98;;;2.80;80.60;;;;;;5035050;28;20056;-64
2021/11/29 08:40:55;;;;;;;24.10;14.15;;;2.80;80.70;;;;;;5036210;28;20172;-68
2021/11/29 08:43:21;;;;;;;24.73;12.95;;;2.80;80.70;;;;;;5038194;28;20156;-68
2021/11/29 08:45:49;;;;;;;29.33;13.75;;;2.80;80.90;;;;;;5033907;28;20033;-68
2021/11/29 08:48:16;;;;;;;25.17;13.52;;;2.80;80.90;;;;;;5033027;28;20115;-67
2021/11/29 08:50:45;;;;;;;20.83;13.35;;;2.80;81.80;;;;;;5029335;28;20040;-67
2021/11/29 08:53:15;;;;;;;22.77;13.60;;;2.80;80.90;;;;;;5039539;28;20036;-67
2021/11/29 08:55:41;;;;;;;20.25;12.63;;;2.80;80.90;;;;;;5038151;28;20511;-67
2021/11/29 08:58:08;;;;;;;20.98;12.30;;;2.80;81.00;;;;;;5037235;28;20504;-68
2021/11/29 09:00:35;;;;;;;19.77;12.60;;;2.80;81.30;;;;;;5034595;28;20029;-67
2021/11/29 09:03:06;;;;;;;19.13;12.57;;;2.70;81.40;;;;;;5034930;28;20037;-67
2021/11/29 09:05:32;;;;;;;17.20;11.48;;;2.70;81.60;;;;;;5027110;28;20029;-67
2021/11/29 09:07:57;;;;;;;17.77;11.93;;;2.70;81.50;;;;;;5033193;28;20032;-67
2021/11/29 09:10:23;;;;;;;16.60;11.02;;;2.70;81.70;;;;;;5030968;28;20040;-65
2021/11/29 09:12:49;;;;;;;17.83;11.85;;;2.70;81.80;;;;;;5030534;28;20128;-67
2021/11/29 09:15:18;;;;;;;19.00;10.93;;;2.70;81.80;;;;;;5032626;28;20044;-67
2021/11/29 09:17:45;;;;;;;16.83;10.70;;;2.70;82.00;;;;;;5029575;28;20046;-67
2021/11/29 09:20:13;;;;;;;18.00;10.85;;;2.80;82.00;;;;;;5034127;28;20120;-66
2021/11/29 09:22:41;;;;;;;14.70;9.90;;;2.80;81.90;;;;;;5032044;28;20721;-65
2021/11/29 09:25:07;;;;;;;16.42;11.57;;;2.80;81.80;;;;;;5040361;28;20037;-67
2021/11/29 09:27:33;;;;;;;16.90;10.02;;;2.90;81.80;;;;;;5039965;28;20516;-67
2021/11/29 09:29:59;;;;;;;17.17;10.38;;;2.80;81.70;;;;;;5041247;28;20154;-68
2021/11/29 09:32:25;;;;;;;14.98;9.43;;;2.90;81.40;;;;;;5039031;28;20672;-67
2021/11/29 09:34:50;;;;;;;16.73;9.55;;;2.90;81.30;;;;;;5032787;28;20697;-69
2021/11/29 09:37:18;;;;;;;15.77;9.10;;;2.90;81.00;;;;;;5027849;28;20044;-67
2021/11/29 09:39:45;;;;;;;14.43;8.32;;;2.90;80.70;;;;;;5035620;28;20038;-68
2021/11/29 09:42:10;;;;;;;13.02;8.27;;;2.90;80.60;;;;;;5033074;28;20037;-68
2021/11/29 09:44:36;;;;;;;13.27;7.78;;;2.90;80.60;;;;;;5036720;28;20427;-68
2021/11/29 09:47:02;;;;;;;12.70;7.93;;;2.90;80.40;;;;;;5032485;28;20037;-68
2021/11/29 09:49:31;;;;;;;11.57;8.05;;;2.90;80.00;;;;;;5031677;28;20352;-68
2021/11/29 09:51:58;;;;;;;12.57;8.10;;;3.00;79.90;;;;;;5034401;28;20037;-67
2021/11/29 09:54:24;;;;;;;13.05;7.60;;;3.00;79.90;;;;;;5034264;28;20570;-66
2021/11/29 09:56:53;;;;;;;14.05;7.72;;;3.00;80.00;;;;;;5030409;28;20040;-67
2021/11/29 09:59:23;;;;;;;13.50;7.78;;;3.00;80.00;;;;;;5040476;28;20029;-67
2021/11/29 10:01:50;;;;;;;11.98;7.20;;;3.00;79.90;;;;;;5031774;28;20225;-68
2021/11/29 10:04:17;;;;;;;12.13;7.55;;;3.00;80.00;;;;;;5034566;28;20366;-68
2021/11/29 10:06:43;;;;;;;11.93;7.00;;;3.10;79.90;;;;;;5032583;28;20044;-68
2021/11/29 10:09:27;;;;;;;10.57;6.65;;;3.10;79.60;;;;;;5032168;28;20574;-67
2021/11/29 10:11:53;;;;;;;11.83;7.13;;;3.10;79.40;;;;;;5031194;28;20041;-68
2021/11/29 10:14:19;;;;;;;10.02;6.65;;;3.20;79.50;;;;;;5034643;28;20041;-68
2021/11/29 10:16:46;;;;;;;10.80;7.05;;;3.20;79.70;;;;;;5028093;28;20508;-65
2021/11/29 10:19:36;;;;;;;13.35;6.65;;;3.30;79.30;;;;;;5027673;28;20041;-67
2021/11/29 10:22:22;;;;;;;10.02;5.82;;;3.30;79.20;;;;;;5036206;28;20626;-65
2021/11/29 10:24:50;;;;;;;9.10;5.70;;;3.30;78.50;;;;;;5036232;28;20427;-66
2021/11/29 10:27:17;;;;;;;11.25;5.72;;;3.30;78.00;;;;;;5033211;28;20460;-66
2021/11/29 10:29:55;;;;;;;13.07;6.20;;;3.30;78.10;;;;;;5031309;28;20437;-66
2021/11/29 10:32:31;;;;;;;12.43;5.75;;;3.30;78.30;;;;;;5032464;28;20037;-66
2021/11/29 10:34:57;;;;;;;10.13;6.30;;;3.30;78.50;;;;;;5033984;28;20044;-66
2021/11/29 10:37:28;;;;;;;12.27;5.65;;;3.30;78.70;;;;;;5040208;28;20029;-67
2021/11/29 10:39:54;;;;;;;9.98;5.55;;;3.30;78.20;;;;;;5044831;28;20411;-69
2021/11/29 10:42:25;;;;;;;11.63;6.10;;;3.30;77.60;;;;;;5044264;28;20037;-67
2021/11/29 10:44:53;;;;;;;12.85;5.80;;;3.30;77.80;;;;;;5046927;28;20088;-67
2021/11/29 10:47:21;;;;;;;9.25;5.97;;;3.30;78.00;;;;;;5044385;28;20033;-67
2021/11/29 10:49:49;;;;;;;11.13;5.15;;;3.30;77.40;;;;;;5046256;28;20048;-66
2021/11/29 10:52:34;;;;;;;8.48;4.82;;;3.30;77.10;;;;;;5044534;28;20032;-67
2021/11/29 10:55:00;;;;;;;7.80;4.70;;;3.20;76.70;;;;;;5044700;28;20044;-66
2021/11/29 10:57:27;;;;;;;6.82;4.68;;;3.20;77.10;;;;;;5044881;28;20071;-67
2021/11/29 10:59:54;;;;;;;9.30;4.68;;;3.20;77.00;;;;;;5042835;28;20468;-67
2021/11/29 11:02:19;;;;;;;8.38;4.20;;;3.20;76.70;;;;;;5035967;28;20609;-67
2021/11/29 11:04:47;;;;;;;7.28;4.10;;;3.20;76.50;;;;;;5038286;28;20044;-67
2021/11/29 11:07:25;;;;;;;8.57;3.92;;;3.10;76.20;;;;;;5041803;28;20052;-67
2021/11/29 11:10:00;;;;;;;7.68;3.78;;;3.20;76.00;;;;;;5043570;28;20504;-67
2021/11/29 11:12:29;;;;;;;7.88;3.72;;;3.20;76.60;;;;;;5036263;28;20055;-67
2021/11/29 11:15:01;;;;;;;6.63;3.50;;;3.20;76.60;;;;;;5049176;28;20551;-67
2021/11/29 11:17:30;;;;;;;4.50;3.00;;;3.20;75.70;;;;;;5044413;28;20399;-67
2021/11/29 11:19:58;;;;;;;7.70;3.25;;;3.30;75.30;;;;;;5046892;28;20497;-67
2021/11/29 11:22:35;;;;;;;5.65;3.05;;;3.30;75.30;;;;;;5048258;28;20036;-67
2021/11/29 11:25:00;;;;;;;4.13;2.70;;;3.30;74.90;;;;;;5049373;28;20044;-70
2021/11/29 11:27:30;;;;;;;10.55;2.85;;;3.30;75.00;;;;;;5049287;28;20032;-67
2021/11/29 11:29:59;;;;;;;5.53;2.40;;;3.40;75.10;;;;;;5049626;28;20040;-67
2021/11/29 11:32:31;;;;;;;7.57;3.15;;;3.40;75.30;;;;;;5044054;28;20135;-66
2021/11/29 11:35:07;;;;;;;6.72;3.08;;;3.50;75.00;;;;;;5048400;28;20080;-67
2021/11/29 11:37:36;;;;;;;10.10;3.70;;;3.60;74.80;;;;;;5045568;28;20465;-67
2021/11/29 11:40:24;;;;;;;7.85;3.40;;;3.70;75.40;;;;;;5046375;28;20037;-67
2021/11/29 11:42:50;;;;;;;6.93;2.85;;;3.80;75.50;;;;;;5042634;28;20047;-66
2021/11/29 11:45:19;;;;;;;8.38;2.67;;;3.90;75.80;;;;;;5046536;28;20109;-67
2021/11/29 11:47:46;;;;;;;7.53;2.25;;;3.90;74.80;;;;;;5042843;28;20029;-67
2021/11/29 11:50:15;;;;;;;9.52;2.55;;;4.00;73.60;;;;;;5046833;28;20500;-67
2021/11/29 11:52:41;;;;;;;9.18;2.50;;;4.10;73.10;;;;;;5042380;28;20051;-67
2021/11/29 11:55:09;;;;;;;8.02;2.00;;;4.10;72.80;;;;;;5041268;28;20029;-67
2021/11/29 11:57:36;;;;;;;5.60;2.05;;;4.10;71.90;;;;;;5039687;28;20041;-67
2021/11/29 12:00:15;;;;;;;4.22;2.20;;;4.10;71.30;;;;;;5038052;28;20106;-67
2021/11/29 12:02:44;;;;;;;5.68;2.05;;;4.10;70.90;;;;;;5043452;28;20056;-67
2021/11/29 12:05:17;;;;;;;6.30;2.40;;;4.00;70.50;;;;;;5046707;28;20509;-67
2021/11/29 12:07:44;;;;;;;11.68;2.60;;;4.00;71.10;;;;;;5040328;28;20041;-66
2021/11/29 12:10:28;;;;;;;4.53;2.03;;;4.00;71.90;;;;;;5045491;28;20492;-67
2021/11/29 12:13:01;;;;;;;5.53;2.05;;;4.00;71.30;;;;;;5040542;28;20033;-66
2021/11/29 12:15:42;;;;;;;5.63;1.85;;;4.00;71.90;;;;;;5038794;28;20037;-67
2021/11/29 12:18:10;;;;;;;9.52;2.28;;;4.00;71.50;;;;;;5042483;28;20029;-67
2021/11/29 12:20:36;;;;;;;8.43;3.30;;;4.00;72.00;;;;;;5044843;28;20049;-67
2021/11/29 12:23:02;;;;;;;5.15;2.70;;;4.00;71.30;;;;;;5041225;28;20029;-67
2021/11/29 12:25:28;;;;;;;5.38;2.00;;;4.00;71.00;;;;;;5041394;28;20052;-67
2021/11/29 12:27:57;;;;;;;3.08;1.52;;;4.00;70.90;;;;;;5042709;28;20114;-67
2021/11/29 12:30:44;;;;;;;5.88;2.05;;;4.00;70.60;;;;;;5040811;28;20041;-67
2021/11/29 12:33:13;;;;;;;3.10;1.40;;;4.00;70.10;;;;;;5034750;28;20041;-66
2021/11/29 12:35:51;;;;;;;5.00;1.50;;;4.00;70.40;;;;;;5044480;28;20051;-67
2021/11/29 12:38:20;;;;;;;5.07;1.45;;;4.00;69.80;;;;;;5040249;28;20520;-67
2021/11/29 12:40:55;;;;;;;4.10;1.77;;;4.10;69.90;;;;;;5045379;28;20128;-67
2021/11/29 12:43:44;;;;;;;4.93;1.60;;;4.00;70.10;;;;;;5046023;28;20025;-68
2021/11/29 12:46:25;;;;;;;6.88;1.92;;;4.10;68.30;;;;;;5044705;28;20082;-67
2021/11/29 12:48:55;;;;;;;4.15;1.77;;;4.10;68.40;;;;;;5043154;28;20095;-67
2021/11/29 12:51:57;;;;;;;4.65;1.60;;;4.10;69.40;;;;;;5042743;28;20086;-67